Time;durP1;ratioP1;P1;durP2;ratioP2;P2;SDS_P1;SDS_P2;PMS_P1;PMS_P2;Temp;Humidity;BMP_temperature;BMP_pressure;BME280_temperature;BME280_humidity;BME280_pressure;Samples;Min_cycle;Max_cycle;Signal;HPM_P1;HPM_P2
2022/05/12 00:01:50;;;;;;;5.67;3.67;;;;;;;17.98;70.31;100179.09;4997411;28;20214;-81
2022/05/12 00:04:17;;;;;;;6.73;3.70;;;;;;;17.96;70.33;100173.00;4993521;28;20211;-82
2022/05/12 00:06:43;;;;;;;7.17;3.93;;;;;;;17.94;70.25;100159.69;4994516;28;20206;-81
2022/05/12 00:09:10;;;;;;;8.43;3.97;;;;;;;17.88;70.05;100176.50;4995779;28;20231;-81
2022/05/12 00:11:37;;;;;;;4.37;3.13;;;;;;;17.85;70.41;100190.28;4999373;28;20334;-82
2022/05/12 00:14:03;;;;;;;5.60;3.90;;;;;;;17.82;70.51;100206.75;4995931;28;20246;-82
2022/05/12 00:16:30;;;;;;;9.27;4.30;;;;;;;17.79;70.83;100238.53;4994506;28;20242;-81
2022/05/12 00:18:58;;;;;;;9.93;4.20;;;;;;;17.77;71.36;100237.84;4993950;28;20234;-81
2022/05/12 00:21:24;;;;;;;6.73;4.13;;;;;;;17.72;71.41;100246.41;4993584;28;20207;-81
2022/05/12 00:23:57;;;;;;;7.30;4.43;;;;;;;17.70;71.65;100237.63;4990735;28;20308;-81
2022/05/12 00:26:24;;;;;;;7.83;4.10;;;;;;;17.66;71.80;100228.13;4998159;28;20207;-80
2022/05/12 00:28:51;;;;;;;7.53;3.90;;;;;;;17.62;71.99;100232.09;4991223;28;20239;-81
2022/05/12 00:31:18;;;;;;;8.50;4.47;;;;;;;17.57;72.18;100240.63;4992345;28;20695;-80
2022/05/12 00:33:45;;;;;;;8.57;4.70;;;;;;;17.54;72.47;100240.97;4988852;28;20211;-81
2022/05/12 00:36:14;;;;;;;7.63;4.10;;;;;;;17.53;73.04;100257.25;4996628;28;20211;-81
2022/05/12 00:38:40;;;;;;;6.83;4.03;;;;;;;17.48;72.63;100236.16;5021671;22;20233;-70
2022/05/12 00:41:08;;;;;;;10.57;4.87;;;;;;;17.44;72.93;100233.91;5008507;28;20223;-70
2022/05/12 00:43:39;;;;;;;8.80;4.97;;;;;;;17.38;73.33;100229.97;5008930;28;20210;-70
2022/05/12 00:46:06;;;;;;;7.47;5.03;;;;;;;17.34;73.66;100256.38;5001743;28;20389;-71
2022/05/12 00:48:33;;;;;;;9.20;4.20;;;;;;;17.31;73.73;100259.34;4994251;28;20722;-70
2022/05/12 00:51:01;;;;;;;8.10;4.90;;;;;;;17.25;73.67;100259.09;4992442;28;20206;-71
2022/05/12 00:53:30;;;;;;;7.47;4.97;;;;;;;17.18;74.37;100242.72;5029835;22;20231;-83
2022/05/12 00:55:58;;;;;;;7.97;4.60;;;;;;;17.15;74.96;100243.00;5044633;28;20291;-83
2022/05/12 00:58:26;;;;;;;8.97;5.20;;;;;;;17.11;75.01;100236.22;5033392;28;20232;-83
2022/05/12 01:00:53;;;;;;;8.17;4.57;;;;;;;17.05;75.35;100241.34;5019938;28;20211;-83
2022/05/12 01:03:22;;;;;;;9.30;5.00;;;;;;;16.99;75.58;100232.91;5020414;28;20204;-83
2022/05/12 01:05:49;;;;;;;8.73;4.70;;;;;;;16.90;76.33;100239.16;5031286;28;20239;-83
2022/05/12 01:08:18;;;;;;;10.43;5.00;;;;;;;16.84;76.27;100236.22;5019895;28;20232;-83
2022/05/12 01:10:51;;;;;;;8.50;4.10;;;;;;;16.72;76.20;100248.97;5020828;28;20673;-82
2022/05/12 01:13:19;;;;;;;7.73;3.80;;;;;;;16.64;75.96;100251.56;4992566;28;20197;-83
2022/05/12 01:15:50;;;;;;;6.77;4.20;;;;;;;16.54;76.29;100240.78;5016879;28;20199;-83
2022/05/12 01:18:17;;;;;;;8.47;4.30;;;;;;;16.42;76.42;100247.34;5028814;28;20712;-83
2022/05/12 01:20:44;;;;;;;7.27;3.90;;;;;;;16.37;76.59;100241.53;5032268;28;20215;-82
2022/05/12 01:23:21;;;;;;;4.87;4.00;;;;;;;16.32;77.04;100257.22;5031388;28;20205;-82
2022/05/12 01:25:47;;;;;;;6.03;3.20;;;;;;;16.29;77.28;100252.16;5032222;28;20198;-84
2022/05/12 01:28:14;;;;;;;5.37;3.70;;;;;;;16.22;77.39;100251.03;5032420;28;20236;-82
2022/05/12 01:30:40;;;;;;;5.43;3.10;;;;;;;16.15;77.32;100253.44;5032272;28;20293;-83
2022/05/12 01:33:07;;;;;;;5.43;3.07;;;;;;;16.09;77.65;100278.19;5022100;28;20286;-82
2022/05/12 01:35:33;;;;;;;3.87;3.10;;;;;;;16.07;77.64;100277.47;5012893;28;20271;-83
2022/05/12 01:38:00;;;;;;;4.33;2.87;;;;;;;16.03;78.08;100275.22;5028654;28;20233;-83
2022/05/12 01:40:28;;;;;;;2.47;2.27;;;;;;;15.98;77.53;100262.19;5018928;28;20210;-83
2022/05/12 01:42:56;;;;;;;4.47;2.50;;;;;;;15.91;77.34;100277.19;5013270;28;20214;-84
2022/05/12 01:45:23;;;;;;;2.67;2.30;;;;;;;15.88;77.48;100281.00;5013488;28;20306;-83
2022/05/12 01:47:50;;;;;;;4.43;2.93;;;;;;;15.84;77.82;100282.28;5012266;28;20227;-83
2022/05/12 01:50:19;;;;;;;3.63;2.50;;;;;;;15.81;77.85;100293.28;5011760;28;20227;-84
2022/05/12 01:52:45;;;;;;;3.90;2.50;;;;;;;15.76;78.13;100294.72;5026601;28;20210;-83
2022/05/12 01:55:13;;;;;;;3.30;2.47;;;;;;;15.72;78.33;100295.97;5032040;28;20408;-83
2022/05/12 01:57:43;;;;;;;4.73;2.63;;;;;;;15.68;78.17;100308.81;5031150;28;20234;-83
2022/05/12 02:00:13;;;;;;;5.40;2.53;;;;;;;15.64;78.30;100302.00;5031945;28;20217;-83
2022/05/12 02:02:40;;;;;;;3.53;2.07;;;;;;;15.62;78.67;100314.72;5030664;28;20214;-83
2022/05/12 02:05:09;;;;;;;5.47;2.80;;;;;;;15.57;78.88;100312.47;5025128;28;20214;-83
2022/05/12 02:07:37;;;;;;;3.93;2.53;;;;;;;15.56;78.62;100315.28;5027248;28;20219;-83
2022/05/12 02:10:05;;;;;;;6.27;3.50;;;;;;;15.53;78.45;100311.00;5022974;28;20230;-83
2022/05/12 02:12:32;;;;;;;7.23;3.00;;;;;;;15.49;78.71;100325.69;5013501;28;20209;-83
2022/05/12 02:15:00;;;;;;;6.13;2.47;;;;;;;15.48;78.51;100339.22;5021898;28;20203;-83
2022/05/12 02:17:26;;;;;;;5.00;2.87;;;;;;;15.47;78.50;100340.22;5027137;28;20712;-82
2022/05/12 02:19:53;;;;;;;5.60;2.93;;;;;;;15.45;79.05;100348.41;5011140;28;20210;-83
2022/05/12 02:22:20;;;;;;;6.63;2.57;;;;;;;15.44;78.76;100348.53;5021102;28;20539;-82
2022/05/12 02:24:46;;;;;;;6.47;2.97;;;;;;;15.42;78.78;100347.81;5031235;28;20210;-83
2022/05/12 02:27:13;;;;;;;4.83;2.60;;;;;;;15.41;78.78;100372.94;5026228;28;20238;-82
2022/05/12 02:29:40;;;;;;;4.10;2.23;;;;;;;15.35;78.47;100379.72;5033759;28;20685;-82
2022/05/12 02:32:09;;;;;;;3.90;2.70;;;;;;;15.34;78.01;100379.84;5027404;28;20202;-83
2022/05/12 02:34:35;;;;;;;3.93;2.30;;;;;;;15.29;77.81;100399.03;5026012;28;20202;-82
2022/05/12 02:37:03;;;;;;;3.47;1.93;;;;;;;15.21;77.13;100407.75;5031932;28;20205;-84
2022/05/12 02:39:32;;;;;;;2.77;1.70;;;;;;;15.12;75.66;100415.75;5033235;28;20831;-83
2022/05/12 02:41:59;;;;;;;2.90;1.10;;;;;;;14.98;73.81;100416.94;5035902;28;20220;-84
2022/05/12 02:44:26;;;;;;;3.53;1.00;;;;;;;14.81;70.33;100425.56;5035743;28;20273;-83
2022/05/12 02:46:53;;;;;;;1.37;0.60;;;;;;;14.64;69.04;100434.16;5035927;28;20208;-83
2022/05/12 02:49:21;;;;;;;1.70;0.77;;;;;;;14.45;67.33;100437.53;5034792;28;20683;-84
2022/05/12 02:51:48;;;;;;;0.70;0.60;;;;;;;14.34;67.09;100443.72;5034898;28;20206;-83
2022/05/12 02:54:15;;;;;;;2.13;0.87;;;;;;;14.27;67.03;100458.59;5022059;28;20356;-82
2022/05/12 02:56:45;;;;;;;1.50;0.60;;;;;;;14.19;67.56;100472.59;5024226;28;20198;-83
2022/05/12 02:59:12;;;;;;;2.43;1.23;;;;;;;14.10;67.13;100480.56;5027195;28;20199;-84
2022/05/12 03:01:39;;;;;;;2.60;1.00;;;;;;;13.96;67.35;100494.19;5034543;28;20214;-83
2022/05/12 03:04:06;;;;;;;2.30;0.70;;;;;;;13.88;67.22;100494.81;5010461;28;20212;-83
2022/05/12 03:06:34;;;;;;;3.10;0.87;;;;;;;13.79;67.38;100507.06;5034305;28;20574;-83
2022/05/12 03:09:01;;;;;;;2.77;0.80;;;;;;;13.71;67.52;100512.19;5025533;28;20340;-83
2022/05/12 03:11:29;;;;;;;3.70;0.90;;;;;;;13.65;67.92;100515.34;5027915;28;20206;-83
2022/05/12 03:13:55;;;;;;;1.10;0.70;;;;;;;13.60;67.55;100522.91;5024353;28;20212;-83
2022/05/12 03:16:22;;;;;;;3.83;1.00;;;;;;;13.54;67.81;100528.72;5024164;28;20225;-82
2022/05/12 03:18:51;;;;;;;2.40;0.60;;;;;;;13.48;68.23;100519.34;5014308;28;20215;-84
2022/05/12 03:21:18;;;;;;;2.60;0.90;;;;;;;13.41;68.02;100536.84;5024893;28;20202;-85
2022/05/12 03:23:46;;;;;;;2.13;0.93;;;;;;;13.36;68.27;100546.19;5018676;28;20206;-83
2022/05/12 03:26:14;;;;;;;2.97;1.00;;;;;;;13.32;68.73;100539.34;5015901;28;20206;-82
2022/05/12 03:28:41;;;;;;;1.03;0.70;;;;;;;13.24;68.38;100549.81;5030596;28;20251;-84
2022/05/12 03:31:08;;;;;;;2.17;0.80;;;;;;;13.16;68.89;100545.88;5035283;28;20579;-83
2022/05/12 03:33:36;;;;;;;2.23;1.00;;;;;;;13.08;68.80;100563.41;5034400;28;20205;-83
2022/05/12 03:36:03;;;;;;;3.57;0.90;;;;;;;13.05;68.92;100574.38;5035156;28;20807;-83
2022/05/12 03:38:30;;;;;;;4.00;1.20;;;;;;;12.99;69.27;100569.47;5025221;28;20250;-83
2022/05/12 03:40:58;;;;;;;2.27;0.80;;;;;;;12.95;69.21;100570.66;5015497;28;20587;-82
2022/05/12 03:46:09;;;;;;;1.67;0.90;;;;;;;12.86;68.95;100590.91;5022963;28;20746;-82
2022/05/12 03:48:37;;;;;;;2.27;0.93;;;;;;;12.84;68.96;100600.88;5033867;28;20311;-83
2022/05/12 03:51:05;;;;;;;4.87;1.03;;;;;;;12.80;69.41;100612.75;5017663;28;20208;-84
2022/05/12 03:53:32;;;;;;;4.90;0.90;;;;;;;12.77;69.48;100619.16;4994898;28;20219;-83
2022/05/12 03:56:01;;;;;;;2.60;0.90;;;;;;;12.74;69.56;100619.38;5000954;28;20732;-83
2022/05/12 03:58:28;;;;;;;1.13;0.70;;;;;;;12.71;69.51;100622.31;5013767;28;20220;-83
2022/05/12 04:00:55;;;;;;;3.03;0.80;;;;;;;12.69;69.77;100636.72;5018009;28;20225;-82
2022/05/12 04:03:22;;;;;;;1.00;0.60;;;;;;;12.65;69.80;100636.09;5014490;28;20210;-83
2022/05/12 04:05:49;;;;;;;3.07;0.80;;;;;;;12.63;69.97;100643.34;5007732;28;20205;-83
2022/05/12 04:08:15;;;;;;;3.13;1.07;;;;;;;12.60;69.66;100648.91;5009375;28;20218;-83
2022/05/12 04:10:42;;;;;;;2.30;0.80;;;;;;;12.59;70.15;100657.03;5007291;28;20229;-82
2022/05/12 04:13:10;;;;;;;2.10;0.87;;;;;;;12.57;70.12;100666.97;5015057;28;20297;-82
2022/05/12 04:15:36;;;;;;;2.20;0.80;;;;;;;12.55;70.32;100663.56;5014129;28;20215;-82
2022/05/12 04:18:05;;;;;;;2.03;1.10;;;;;;;12.55;70.39;100682.25;5011982;28;20224;-82
2022/05/12 04:20:33;;;;;;;3.10;0.80;;;;;;;12.54;70.39;100675.25;5008707;28;20212;-82
2022/05/12 04:23:00;;;;;;;2.30;0.67;;;;;;;12.51;70.67;100687.84;5010326;28;20219;-82
2022/05/12 04:25:28;;;;;;;3.40;0.70;;;;;;;12.51;70.71;100692.34;5010691;28;20208;-82
2022/05/12 04:27:54;;;;;;;1.53;0.87;;;;;;;12.49;70.84;100688.91;5014804;28;20240;-82
2022/05/12 04:30:25;;;;;;;2.70;1.00;;;;;;;12.46;70.72;100692.66;5011465;28;20231;-82
2022/05/12 04:32:52;;;;;;;1.77;0.73;;;;;;;12.44;71.02;100691.91;5017200;28;20210;-82
2022/05/12 04:35:20;;;;;;;2.50;0.80;;;;;;;12.44;71.13;100699.06;5001767;28;20287;-81
2022/05/12 04:37:48;;;;;;;3.60;0.97;;;;;;;12.44;71.56;100697.25;5012189;28;20222;-80
2022/05/12 04:40:19;;;;;;;2.63;1.30;;;;;;;12.44;72.03;100704.41;5004977;28;20203;-80
2022/05/12 04:42:47;;;;;;;3.27;0.90;;;;;;;12.43;71.99;100706.22;5000281;28;20931;-80
2022/05/12 04:45:14;;;;;;;3.60;0.80;;;;;;;12.42;71.94;100714.34;5001895;28;20210;-81
2022/05/12 04:47:43;;;;;;;1.87;0.80;;;;;;;12.39;72.39;100712.72;5005387;28;21014;-80
2022/05/12 04:50:13;;;;;;;3.70;1.00;;;;;;;12.39;72.49;100720.75;5006009;28;20224;-82
2022/05/12 04:52:40;;;;;;;2.00;0.70;;;;;;;12.38;72.28;100726.19;5007113;28;20266;-80
2022/05/12 04:55:07;;;;;;;1.40;0.77;;;;;;;12.39;72.45;100734.09;5011864;28;20229;-81
2022/05/12 04:57:38;;;;;;;2.93;0.90;;;;;;;12.40;72.06;100732.28;5004053;28;20581;-80
2022/05/12 05:00:07;;;;;;;1.90;0.90;;;;;;;12.40;72.43;100746.50;5005788;28;20696;-81
2022/05/12 05:02:34;;;;;;;1.33;0.80;;;;;;;12.40;72.57;100748.31;5000935;28;20661;-81
2022/05/12 05:05:02;;;;;;;2.20;0.80;;;;;;;12.37;72.23;100749.38;5003406;28;20218;-81
2022/05/12 05:07:28;;;;;;;2.43;0.80;;;;;;;12.40;72.58;100754.50;5003340;28;20222;-81
2022/05/12 05:09:55;;;;;;;1.87;0.70;;;;;;;12.42;72.53;100763.25;4996630;28;20236;-81
2022/05/12 05:12:21;;;;;;;3.60;0.90;;;;;;;12.44;72.66;100760.50;5000763;28;20669;-82
2022/05/12 05:14:48;;;;;;;3.47;0.73;;;;;;;12.44;72.40;100772.03;5000699;28;20222;-81
2022/05/12 05:17:14;;;;;;;1.57;0.80;;;;;;;12.47;72.13;100782.50;4996419;28;20229;-81
2022/05/12 05:19:42;;;;;;;2.67;0.70;;;;;;;12.50;72.03;100773.44;5003013;28;20211;-81
2022/05/12 05:22:10;;;;;;;2.00;0.73;;;;;;;12.52;71.83;100788.41;5002974;28;20209;-81
2022/05/12 05:24:37;;;;;;;1.00;0.70;;;;;;;12.56;71.48;100785.50;4999611;28;20203;-81
2022/05/12 05:27:04;;;;;;;2.07;1.03;;;;;;;12.60;71.87;100787.00;4997129;28;20213;-81
2022/05/12 05:29:31;;;;;;;0.90;0.70;;;;;;;12.61;71.59;100786.03;5006617;28;20235;-81
2022/05/12 05:31:57;;;;;;;2.10;0.80;;;;;;;12.67;71.42;100799.84;5011842;28;20228;-82
2022/05/12 05:34:24;;;;;;;1.33;0.70;;;;;;;12.71;71.30;100800.47;5008145;28;20203;-81
2022/05/12 05:36:50;;;;;;;1.67;0.83;;;;;;;12.76;70.83;100803.66;5005072;28;20204;-80
2022/05/12 05:39:22;;;;;;;0.93;0.80;;;;;;;12.78;70.76;100807.09;5015536;28;20577;-81
2022/05/12 05:41:49;;;;;;;1.90;0.60;;;;;;;12.81;70.78;100801.53;5011683;28;20757;-81
2022/05/12 05:44:16;;;;;;;0.80;0.67;;;;;;;12.86;70.60;100815.44;5011996;28;20541;-80
2022/05/12 05:46:55;;;;;;;3.77;0.70;;;;;;;12.95;70.21;100816.59;5010865;28;20224;-81
2022/05/12 05:49:22;;;;;;;2.83;0.80;;;;;;;13.01;69.94;100818.84;5012096;28;20406;-80
2022/05/12 05:54:34;;;;;;;1.53;0.60;;;;;;;13.24;69.47;100828.81;5011624;28;20195;-81
2022/05/12 05:57:01;;;;;;;2.07;0.60;;;;;;;13.33;68.80;100835.28;5003208;28;20206;-81
2022/05/12 05:59:28;;;;;;;3.40;1.27;;;;;;;13.43;68.42;100841.72;5005112;28;20727;-81
2022/05/12 06:01:54;;;;;;;2.13;0.70;;;;;;;13.53;68.29;100848.09;5000941;28;20851;-81
2022/05/12 06:04:21;;;;;;;2.07;0.73;;;;;;;13.64;68.25;100844.63;5005904;28;20206;-81
2022/05/12 06:06:47;;;;;;;3.83;0.70;;;;;;;13.75;67.60;100842.03;5000768;28;20211;-80
2022/05/12 06:09:14;;;;;;;2.97;0.70;;;;;;;13.85;67.11;100854.63;4996943;28;20209;-81
2022/05/12 06:11:44;;;;;;;1.57;0.73;;;;;;;13.95;66.20;100853.97;5001757;28;20214;-81
2022/05/12 06:14:11;;;;;;;1.97;0.70;;;;;;;14.04;66.22;100862.16;5011474;28;20206;-81
2022/05/12 06:16:38;;;;;;;3.37;0.87;;;;;;;14.15;66.45;100864.88;5010542;28;20202;-81
2022/05/12 06:19:05;;;;;;;2.93;0.80;;;;;;;14.27;65.99;100870.31;5010604;28;20223;-81
2022/05/12 06:21:35;;;;;;;3.27;0.70;;;;;;;14.33;65.12;100876.03;4999527;28;20676;-81
2022/05/12 06:24:02;;;;;;;5.83;1.27;;;;;;;14.39;64.90;100869.38;4995228;28;20199;-82
2022/05/12 06:26:28;;;;;;;4.60;1.60;;;;;;;14.46;64.94;100871.50;4994423;28;20661;-81
2022/05/12 06:28:58;;;;;;;4.70;1.10;;;;;;;14.54;64.63;100887.84;5000881;28;20303;-81
2022/05/12 06:31:29;;;;;;;2.70;0.90;;;;;;;14.56;63.66;100887.72;5000734;28;20234;-81
2022/05/12 06:33:57;;;;;;;1.80;0.60;;;;;;;14.63;63.89;100893.50;4996159;28;20200;-81
2022/05/12 06:36:24;;;;;;;3.77;1.10;;;;;;;14.71;64.10;100908.00;5009259;28;20222;-82
2022/05/12 06:38:51;;;;;;;9.07;1.50;;;;;;;14.79;63.43;100904.75;5023394;28;20771;-82
2022/05/12 06:41:18;;;;;;;8.53;1.63;;;;;;;14.83;62.61;100911.59;5030538;28;20660;-82
2022/05/12 06:43:45;;;;;;;9.00;1.70;;;;;;;14.88;62.98;100917.44;5030783;28;20799;-81
2022/05/12 06:46:15;;;;;;;1.70;0.80;;;;;;;14.93;62.62;100923.31;5029859;28;20284;-81
2022/05/12 06:48:46;;;;;;;1.10;0.83;;;;;;;14.99;62.63;100925.53;5029493;28;20229;-81
2022/05/12 06:51:13;;;;;;;1.27;0.60;;;;;;;15.05;62.47;100922.34;5029745;28;20266;-82
2022/05/12 06:53:40;;;;;;;3.77;1.27;;;;;;;15.10;62.42;100924.66;5029297;28;20595;-82
2022/05/12 06:56:07;;;;;;;2.47;1.00;;;;;;;15.15;62.50;100926.03;5029523;28;20579;-82
2022/05/12 06:58:34;;;;;;;5.60;1.50;;;;;;;15.22;61.83;100926.41;5029457;28;20234;-83
2022/05/12 07:01:00;;;;;;;3.10;1.30;;;;;;;15.31;61.81;100932.88;5029751;28;20225;-82
2022/05/12 07:03:29;;;;;;;5.57;1.70;;;;;;;15.37;61.52;100940.47;5029511;28;20575;-82
2022/05/12 07:05:56;;;;;;;5.13;1.40;;;;;;;15.40;60.84;100934.84;5030106;28;20210;-82
2022/05/12 07:08:23;;;;;;;3.83;1.30;;;;;;;15.46;60.44;100948.63;5028777;28;20233;-82
2022/05/12 07:10:49;;;;;;;3.93;1.20;;;;;;;15.55;60.27;100952.44;5029474;28;20233;-82
2022/05/12 07:13:19;;;;;;;11.37;3.07;;;;;;;15.68;60.03;100955.88;5031721;28;20210;-82
2022/05/12 07:15:47;;;;;;;14.33;2.27;;;;;;;15.79;59.24;100960.38;5033098;28;20252;-82
2022/05/12 07:18:14;;;;;;;18.33;3.23;;;;;;;15.88;59.48;100960.50;5033162;28;20238;-82
2022/05/12 07:28:55;;;;;;;2.47;1.37;;;;;;;15.99;58.10;100973.06;5033540;28;20597;-82
2022/05/12 07:31:22;;;;;;;3.17;1.47;;;;;;;16.02;58.11;100986.25;5033544;28;20570;-82
2022/05/12 07:33:49;;;;;;;2.43;1.07;;;;;;;16.07;58.28;100986.72;5033012;28;20211;-82
2022/05/12 07:36:20;;;;;;;6.13;1.80;;;;;;;16.16;57.82;100990.50;5032249;28;20204;-82
2022/05/12 07:38:47;;;;;;;3.87;1.30;;;;;;;16.24;58.51;100994.28;5020261;28;20487;-82
2022/05/12 07:41:14;;;;;;;4.80;1.83;;;;;;;16.40;58.13;100988.50;5013178;28;20235;-83
2022/05/12 07:43:43;;;;;;;4.07;1.40;;;;;;;16.48;57.45;100985.19;5013140;28;20630;-82
2022/05/12 07:46:11;;;;;;;3.90;1.70;;;;;;;16.52;57.62;101000.91;5012360;28;20212;-82
2022/05/12 07:48:38;;;;;;;3.70;1.10;;;;;;;16.62;57.32;100999.19;5012447;28;20224;-82
2022/05/12 07:51:05;;;;;;;5.20;1.73;;;;;;;16.67;56.90;101009.56;5012846;28;20237;-82
2022/05/12 07:53:33;;;;;;;6.77;1.33;;;;;;;16.80;56.94;101007.59;5013095;28;20700;-82
2022/05/12 07:56:00;;;;;;;3.50;1.20;;;;;;;16.87;56.15;101008.78;5016722;28;20222;-82
2022/05/12 07:58:26;;;;;;;12.33;2.30;;;;;;;16.95;56.32;101017.06;5032175;28;20240;-82
2022/05/12 08:00:53;;;;;;;7.23;1.80;;;;;;;17.04;55.97;101015.41;5032237;28;20204;-82
2022/05/12 08:03:20;;;;;;;4.97;1.57;;;;;;;17.08;55.87;101016.88;5032412;28;20201;-82
2022/05/12 08:05:47;;;;;;;4.47;1.50;;;;;;;17.10;55.34;101022.97;5032213;28;20212;-81
2022/05/12 08:08:13;;;;;;;33.97;4.70;;;;;;;17.11;54.72;101022.00;5032025;28;20231;-82
2022/05/12 08:10:42;;;;;;;4.40;1.57;;;;;;;17.16;55.26;101024.31;5032794;28;20239;-82
2022/05/12 08:13:14;;;;;;;8.87;1.80;;;;;;;17.23;54.96;101020.94;5033463;28;20694;-82
2022/05/12 08:15:41;;;;;;;2.73;1.00;;;;;;;17.35;55.18;101030.69;5032926;28;20330;-82
2022/05/12 08:18:08;;;;;;;8.03;1.77;;;;;;;17.44;54.48;101033.56;5032847;28;20261;-81
2022/05/12 08:20:35;;;;;;;4.67;1.40;;;;;;;17.53;54.32;101033.63;5032757;28;20213;-82
2022/05/12 08:23:02;;;;;;;4.10;1.37;;;;;;;17.62;53.71;101034.66;5032640;28;20220;-82
2022/05/12 08:25:29;;;;;;;3.97;1.03;;;;;;;17.60;53.15;101042.88;5031000;28;20207;-82
2022/05/12 08:27:58;;;;;;;6.40;2.03;;;;;;;17.67;53.54;101043.25;5031609;28;20237;-82
2022/05/12 08:30:25;;;;;;;3.27;1.00;;;;;;;17.74;52.86;101036.31;5032140;28;20226;-82
2022/05/12 08:32:52;;;;;;;7.90;1.60;;;;;;;17.84;52.60;101042.63;5032013;28;20214;-82
2022/05/12 08:35:19;;;;;;;11.90;1.93;;;;;;;17.91;51.84;101042.94;5031692;28;20213;-82
2022/05/12 08:37:45;;;;;;;7.40;1.53;;;;;;;17.96;51.40;101046.06;5027082;28;20251;-83
2022/05/12 08:40:19;;;;;;;3.37;1.10;;;;;;;17.99;51.14;101051.19;5012341;28;20214;-82
2022/05/12 08:42:47;;;;;;;6.67;1.60;;;;;;;18.00;51.25;101042.97;5012388;28;20582;-82
2022/05/12 08:45:19;;;;;;;8.43;2.50;;;;;;;18.10;51.49;101044.84;5012811;28;20209;-82
2022/05/12 08:47:48;;;;;;;7.80;1.40;;;;;;;18.19;50.49;101044.91;5011938;28;20233;-82
2022/05/12 08:50:20;;;;;;;26.00;4.00;;;;;;;18.28;50.38;101051.28;5012223;28;20673;-82
2022/05/12 08:52:49;;;;;;;6.17;1.30;;;;;;;18.41;50.39;101051.94;5011711;28;20215;-82
2022/05/12 08:55:20;;;;;;;3.57;1.00;;;;;;;18.50;49.83;101061.03;5012480;28;20685;-82
2022/05/12 08:57:51;;;;;;;14.97;2.93;;;;;;;18.55;49.36;101053.38;5011822;28;20239;-82
2022/05/12 09:00:19;;;;;;;4.30;1.00;;;;;;;18.58;49.23;101048.56;5012605;28;20197;-81
2022/05/12 09:02:54;;;;;;;2.33;0.70;;;;;;;18.60;49.26;101054.72;5012340;28;20782;-82
2022/05/12 09:05:27;;;;;;;6.50;1.70;;;;;;;18.75;50.03;101054.28;5012690;28;20775;-83
2022/05/12 09:07:59;;;;;;;4.33;1.10;;;;;;;18.90;48.95;101064.53;5011827;28;20224;-82
2022/05/12 09:10:40;;;;;;;4.67;1.30;;;;;;;19.01;48.40;101060.84;5011795;28;20193;-82
2022/05/12 09:13:14;;;;;;;2.93;0.90;;;;;;;19.00;47.21;101061.84;5012186;28;20232;-82
2022/05/12 09:15:50;;;;;;;3.30;0.83;;;;;;;18.99;46.95;101058.28;5011981;28;20692;-82
2022/05/12 09:18:18;;;;;;;25.40;3.20;;;;;;;19.04;46.71;101065.97;5011873;28;20224;-81
2022/05/12 09:20:46;;;;;;;9.43;2.10;;;;;;;19.10;46.17;101056.47;5011536;28;20746;-82
2022/05/12 09:23:12;;;;;;;6.83;0.90;;;;;;;19.15;46.04;101063.16;5011963;28;20206;-82
2022/05/12 09:25:41;;;;;;;4.00;0.87;;;;;;;19.19;46.37;101061.84;5011511;28;20215;-81
2022/05/12 09:28:19;;;;;;;7.17;1.30;;;;;;;19.16;45.44;101061.28;5011573;28;20720;-82
2022/05/12 09:30:50;;;;;;;2.67;0.73;;;;;;;19.13;45.16;101059.72;5011342;28;20222;-82
2022/05/12 09:33:24;;;;;;;3.10;0.87;;;;;;;19.20;45.31;101066.25;5011413;28;20196;-82
2022/05/12 09:35:54;;;;;;;2.27;0.70;;;;;;;19.34;44.80;101056.88;5011045;28;20228;-82
2022/05/12 09:38:23;;;;;;;3.30;0.70;;;;;;;19.43;44.53;101056.84;5020335;28;20228;-83
2022/05/12 09:40:50;;;;;;;2.40;0.80;;;;;;;19.56;44.30;101050.31;5030798;28;20235;-83
2022/05/12 09:43:20;;;;;;;1.70;0.50;;;;;;;19.65;43.27;101052.16;5031126;28;20594;-82
2022/05/12 09:46:05;;;;;;;3.27;0.60;;;;;;;19.70;43.16;101050.72;5031126;28;20210;-82
2022/05/12 09:48:33;;;;;;;1.07;0.50;;;;;;;19.76;43.24;101042.03;5030211;28;20232;-82
2022/05/12 09:51:22;;;;;;;1.93;0.90;;;;;;;19.89;43.26;101051.66;5030516;28;20226;-82
2022/05/12 09:53:50;;;;;;;2.37;0.93;;;;;;;19.98;42.80;101056.19;5030474;28;20215;-82
2022/05/12 09:56:31;;;;;;;1.27;0.60;;;;;;;20.04;43.12;101044.78;5030814;28;20205;-82
2022/05/12 09:59:10;;;;;;;2.90;0.70;;;;;;;20.11;43.02;101046.72;5030383;28;20233;-82
2022/05/12 10:01:52;;;;;;;2.70;0.80;;;;;;;20.23;43.16;101041.16;5030273;28;20202;-82
2022/05/12 10:10:02;;;;;;;1.57;0.63;;;;;;;20.54;41.79;101060.66;5029875;28;20590;-82
2022/05/12 10:12:36;;;;;;;3.83;0.87;;;;;;;20.66;41.31;101054.00;5030988;28;20212;-82
2022/05/12 10:15:11;;;;;;;2.43;0.70;;;;;;;20.69;40.28;101059.97;5031557;28;20604;-82
2022/05/12 10:17:43;;;;;;;4.37;0.80;;;;;;;20.69;40.11;101054.56;5030791;28;20225;-82
2022/05/12 10:20:12;;;;;;;2.30;0.70;;;;;;;20.70;40.38;101056.28;5031461;28;20205;-82
2022/05/12 10:22:43;;;;;;;2.83;0.70;;;;;;;20.75;40.61;101056.66;5031010;28;20296;-82
2022/05/12 10:25:27;;;;;;;2.00;0.70;;;;;;;20.79;40.49;101055.34;5031056;28;20209;-83
2022/05/12 10:27:59;;;;;;;2.43;0.90;;;;;;;20.87;40.75;101051.88;5030882;28;20688;-82
2022/05/12 10:30:41;;;;;;;1.50;0.68;;;;;;;20.93;40.44;101058.53;5031366;28;20196;-82
2022/05/12 10:33:24;;;;;;;2.53;0.90;;;;;;;20.99;40.60;101056.03;5031283;28;20193;-82
2022/05/12 10:36:04;;;;;;;2.00;0.50;;;;;;;21.06;39.56;101061.69;5031275;28;20217;-82
2022/05/12 10:38:39;;;;;;;2.10;0.60;;;;;;;20.97;38.37;101049.94;5030935;28;20257;-82
2022/05/12 10:41:13;;;;;;;2.43;0.87;;;;;;;20.93;37.91;101059.38;5031786;28;20193;-83
2022/05/12 10:44:14;;;;;;;1.43;0.70;;;;;;;20.94;38.37;101052.13;5031821;28;20195;-82
2022/05/12 10:46:51;;;;;;;1.83;0.63;;;;;;;20.98;38.11;101057.03;5031466;28;20270;-82
2022/05/12 10:49:23;;;;;;;1.70;0.70;;;;;;;21.04;38.29;101058.28;5034465;28;20625;-82
2022/05/12 10:52:07;;;;;;;2.47;0.67;;;;;;;21.09;38.06;101051.41;5034857;28;20700;-83
2022/05/12 10:54:42;;;;;;;2.90;0.80;;;;;;;21.07;36.75;101049.88;5035635;28;20223;-83
2022/05/12 10:57:25;;;;;;;1.83;0.80;;;;;;;21.09;36.95;101051.41;5035287;28;20196;-83
2022/05/12 11:00:04;;;;;;;1.53;0.90;;;;;;;21.01;36.43;101051.34;5034875;28;20195;-83
2022/05/12 11:02:39;;;;;;;1.80;0.80;;;;;;;20.94;37.11;101041.28;5035118;28;20191;-83
2022/05/12 11:05:13;;;;;;;1.73;0.90;;;;;;;20.93;37.13;101048.56;5035322;28;20198;-82
2022/05/12 11:07:45;;;;;;;1.47;0.70;;;;;;;20.96;37.15;101045.53;5034623;28;20224;-83
2022/05/12 11:10:24;;;;;;;0.87;0.60;;;;;;;21.04;37.61;101048.31;5034776;28;20519;-82
2022/05/12 11:12:54;;;;;;;1.95;0.70;;;;;;;21.10;38.08;101054.97;5034451;28;20224;-83
2022/05/12 11:15:25;;;;;;;4.33;0.73;;;;;;;21.14;37.19;101045.50;5034353;28;20208;-82
2022/05/12 11:17:59;;;;;;;2.17;0.80;;;;;;;21.13;37.16;101052.81;5034667;28;20241;-82
2022/05/12 11:20:32;;;;;;;1.00;0.70;;;;;;;21.11;36.87;101059.41;5035017;28;20201;-83
2022/05/12 11:23:12;;;;;;;1.87;0.50;;;;;;;21.11;37.03;101049.41;5035205;28;20217;-82
2022/05/12 11:25:52;;;;;;;1.23;0.55;;;;;;;21.21;37.39;101034.94;5034325;28;20189;-83
2022/05/12 11:31:22;;;;;;;3.17;0.82;;;;;;;21.41;36.38;101044.59;5034216;28;20625;-83
2022/05/12 11:33:52;;;;;;;2.40;0.70;;;;;;;21.41;35.72;101050.03;5033983;28;20437;-82
2022/05/12 11:36:20;;;;;;;1.00;0.57;;;;;;;21.43;35.26;101042.59;5033666;28;20244;-83
2022/05/12 11:38:53;;;;;;;0.77;0.50;;;;;;;21.50;35.21;101034.69;5033486;28;20712;-83
2022/05/12 11:41:43;;;;;;;1.75;0.70;;;;;;;21.61;34.93;101034.41;5033921;28;20707;-83
2022/05/12 11:44:29;;;;;;;2.97;0.80;;;;;;;21.66;34.71;101034.78;5034467;28;20206;-83
2022/05/12 11:47:33;;;;;;;2.05;0.55;;;;;;;21.72;34.71;101031.44;5033951;28;20198;-84
2022/05/12 11:50:16;;;;;;;2.70;1.00;;;;;;;21.73;33.82;101041.25;5032168;28;20209;-83
2022/05/12 11:52:53;;;;;;;2.58;0.68;;;;;;;21.75;34.10;101042.81;5033158;28;20635;-83
2022/05/12 11:55:26;;;;;;;3.25;0.98;;;;;;;21.77;34.12;101032.66;5033652;28;20220;-83
2022/05/12 11:58:03;;;;;;;1.75;0.70;;;;;;;21.81;34.18;101033.19;5033401;28;20233;-82